createdAt,value
2018-03-23T00:00:45.422Z,23.30
2018-03-23T00:03:12.941Z,22.73
2018-03-23T00:05:40.933Z,21.93
2018-03-23T00:08:09.352Z,21.50
2018-03-23T00:10:36.860Z,19.93
2018-03-23T00:13:05.148Z,22.33
2018-03-23T00:15:33.419Z,22.83
2018-03-23T00:18:01.702Z,21.17
2018-03-23T00:20:29.997Z,24.87
2018-03-23T00:22:57.512Z,22.20
2018-03-23T00:25:25.040Z,23.77
2018-03-23T00:27:52.545Z,21.70
2018-03-23T00:30:20.056Z,22.20
2018-03-23T00:32:47.572Z,20.53
2018-03-23T00:35:16.443Z,22.23
2018-03-23T00:37:44.002Z,25.40
2018-03-23T00:40:11.523Z,21.50
2018-03-23T00:42:39.094Z,23.57
2018-03-23T00:45:10.492Z,22.13
2018-03-23T00:47:38.808Z,21.53
2018-03-23T00:50:07.156Z,20.47
2018-03-23T00:52:35.448Z,21.53
2018-03-23T00:55:02.965Z,21.87
2018-03-23T00:57:30.484Z,20.13
2018-03-23T00:59:58.016Z,19.17
2018-03-23T01:02:26.304Z,19.17
2018-03-23T01:04:54.042Z,18.03
2018-03-23T01:07:22.943Z,19.90
2018-03-23T01:09:51.227Z,19.20
2018-03-23T01:12:19.528Z,18.30
2018-03-23T01:14:47.040Z,18.47
2018-03-23T01:17:14.569Z,18.57
2018-03-23T01:19:42.080Z,17.40
2018-03-23T01:22:16.217Z,17.70
2018-03-23T01:24:44.352Z,18.40
2018-03-23T01:27:12.629Z,17.83
2018-03-23T01:29:40.168Z,17.60
2018-03-23T01:32:07.673Z,18.33
2018-03-23T01:34:35.197Z,18.63
2018-03-23T01:37:02.713Z,15.53
2018-03-23T01:39:30.298Z,16.53
2018-03-23T01:41:57.876Z,13.60
2018-03-23T01:44:25.497Z,15.37
2018-03-23T01:46:53.033Z,16.70
2018-03-23T01:49:20.576Z,15.00
2018-03-23T01:51:48.856Z,14.87
2018-03-23T01:54:20.888Z,14.10
2018-03-23T01:56:48.398Z,14.23
2018-03-23T01:59:15.908Z,16.73
2018-03-23T02:01:43.529Z,14.60
2018-03-23T02:04:11.054Z,14.57
2018-03-23T02:06:39.343Z,13.07
2018-03-23T02:09:12.120Z,14.90
2018-03-23T02:11:40.412Z,13.73
2018-03-23T02:14:07.940Z,15.03
2018-03-23T02:16:35.459Z,14.97
2018-03-23T02:19:02.993Z,14.53
2018-03-23T02:21:30.513Z,15.97
2018-03-23T02:23:58.021Z,16.53
2018-03-23T02:26:25.525Z,12.90
2018-03-23T02:28:53.039Z,13.63
2018-03-23T02:31:20.537Z,12.90
2018-03-23T02:33:48.036Z,14.43
2018-03-23T02:36:15.578Z,13.37
2018-03-23T02:38:43.857Z,13.00
2018-03-23T02:41:12.144Z,7.60
2018-03-23T02:43:40.408Z,8.53
2018-03-23T02:46:08.725Z,7.27
2018-03-23T02:48:36.232Z,7.30
2018-03-23T02:51:03.774Z,7.60
2018-03-23T02:53:31.276Z,5.53
2018-03-23T02:55:59.579Z,5.33
2018-03-23T02:58:27.086Z,4.93
2018-03-23T03:00:54.595Z,5.20
2018-03-23T03:03:22.162Z,5.37
2018-03-23T03:05:50.134Z,5.17
2018-03-23T03:08:17.652Z,5.17
2018-03-23T03:10:45.921Z,5.47
2018-03-23T03:13:14.195Z,6.27
2018-03-23T03:15:41.691Z,4.67
2018-03-23T03:18:09.228Z,5.77
2018-03-23T03:20:37.509Z,5.63
2018-03-23T03:23:05.817Z,4.80
2018-03-23T03:25:33.360Z,5.33
2018-03-23T03:28:00.887Z,5.67
2018-03-23T03:30:29.175Z,7.73
2018-03-23T03:32:57.442Z,6.90
2018-03-23T03:35:24.973Z,7.23
2018-03-23T03:37:52.810Z,7.23
2018-03-23T03:40:20.335Z,7.97
2018-03-23T03:42:48.594Z,7.87
2018-03-23T03:45:16.098Z,6.90
2018-03-23T03:47:43.910Z,8.27
2018-03-23T03:50:11.414Z,6.87
2018-03-23T03:52:38.938Z,7.80
2018-03-23T03:55:06.734Z,7.50
2018-03-23T03:57:35.459Z,6.77
2018-03-23T04:00:02.960Z,9.10
2018-03-23T04:02:31.487Z,7.30
2018-03-23T04:04:59.008Z,9.50
2018-03-23T04:07:27.993Z,6.10
2018-03-23T04:09:56.303Z,6.33
2018-03-23T04:12:23.800Z,7.23
2018-03-23T04:14:51.307Z,8.60
2018-03-23T04:17:19.580Z,7.27
2018-03-23T04:19:47.845Z,6.37
2018-03-23T04:22:16.129Z,6.50
2018-03-23T04:24:44.745Z,7.37
2018-03-23T04:27:13.331Z,7.87
2018-03-23T04:29:41.185Z,6.27
2018-03-23T04:32:08.702Z,6.90
2018-03-23T04:34:36.239Z,6.93
2018-03-23T04:37:03.750Z,7.90
2018-03-23T04:39:31.267Z,6.80
2018-03-23T04:41:58.768Z,9.07
2018-03-23T04:44:27.044Z,7.70
2018-03-23T04:46:55.321Z,7.97
2018-03-23T04:49:23.594Z,7.93
2018-03-23T04:51:52.018Z,9.13
2018-03-23T04:54:19.530Z,10.20
2018-03-23T04:56:47.860Z,9.60
2018-03-23T04:59:15.413Z,11.00
2018-03-23T05:01:43.985Z,9.17
2018-03-23T05:04:11.600Z,10.67
2018-03-23T05:06:39.530Z,12.00
2018-03-23T05:09:07.070Z,11.07
2018-03-23T05:11:34.577Z,12.17
2018-03-23T05:14:02.100Z,12.53
2018-03-23T05:16:29.603Z,12.30
2018-03-23T05:18:57.117Z,10.87
2018-03-23T05:21:24.629Z,10.50
2018-03-23T05:23:52.917Z,11.77
2018-03-23T05:26:20.490Z,11.00
2018-03-23T05:28:48.052Z,11.63
2018-03-23T05:31:15.578Z,11.90
2018-03-23T05:33:43.096Z,12.23
2018-03-23T05:36:14.616Z,11.90
2018-03-23T05:38:42.888Z,12.87
2018-03-23T05:41:11.791Z,11.43
2018-03-23T05:43:39.293Z,12.63
2018-03-23T05:46:06.818Z,13.37
2018-03-23T05:48:34.330Z,12.40
2018-03-23T05:51:01.856Z,12.03
2018-03-23T05:53:29.356Z,14.07
2018-03-23T05:55:56.888Z,14.40
2018-03-23T05:58:24.468Z,14.37
2018-03-23T06:00:56.720Z,11.37
2018-03-23T06:03:24.257Z,13.70
2018-03-23T06:05:51.769Z,13.40
2018-03-23T06:08:20.067Z,13.00
2018-03-23T06:10:47.584Z,10.67
2018-03-23T06:13:15.101Z,12.13
2018-03-23T06:15:42.629Z,11.03
2018-03-23T06:18:10.904Z,12.13
2018-03-23T06:20:39.806Z,11.80
2018-03-23T06:23:08.094Z,12.83
2018-03-23T06:25:35.757Z,10.23
2018-03-23T06:28:03.318Z,10.30
2018-03-23T06:30:31.600Z,10.07
2018-03-23T06:32:59.105Z,11.43
2018-03-23T06:35:26.630Z,11.77
2018-03-23T06:37:54.146Z,11.63
2018-03-23T06:40:26.923Z,13.33
2018-03-23T06:42:55.221Z,13.13
2018-03-23T06:45:23.493Z,13.77
2018-03-23T06:47:51.797Z,13.13
2018-03-23T06:50:19.292Z,12.27
2018-03-23T06:52:46.804Z,12.40
2018-03-23T06:55:14.313Z,12.80
2018-03-23T06:57:42.548Z,13.67
2018-03-23T07:00:10.057Z,11.80
2018-03-23T07:02:37.569Z,13.03
2018-03-23T07:05:05.095Z,15.97
2018-03-23T07:07:37.775Z,15.53
2018-03-23T07:10:06.085Z,11.60
2018-03-23T07:12:36.420Z,14.00
2018-03-23T07:15:03.957Z,13.50
2018-03-23T07:17:31.467Z,13.00
2018-03-23T07:20:00.730Z,14.47
2018-03-23T07:22:36.138Z,13.17
2018-03-23T07:25:08.314Z,14.20
2018-03-23T07:27:36.678Z,14.80
2018-03-23T07:30:04.967Z,15.03
2018-03-23T07:32:33.269Z,12.53
2018-03-23T07:35:00.800Z,15.77
2018-03-23T07:47:18.515Z,16.10
2018-03-23T07:49:46.914Z,11.67
2018-03-23T07:52:14.417Z,13.00
2018-03-23T07:54:46.114Z,14.47
2018-03-23T07:57:13.633Z,14.80
2018-03-23T07:59:44.997Z,14.37
2018-03-23T08:02:13.277Z,12.13
2018-03-23T08:04:41.589Z,12.37
2018-03-23T08:07:09.099Z,13.07
2018-03-23T08:09:37.240Z,13.83
2018-03-23T08:12:05.237Z,12.13
2018-03-23T08:14:32.870Z,10.47
2018-03-23T08:17:00.396Z,12.57
2018-03-23T08:19:27.992Z,14.20
2018-03-23T08:21:55.569Z,12.03
2018-03-23T08:24:23.165Z,11.93
2018-03-23T08:26:51.456Z,13.53
2018-03-23T08:29:19.001Z,12.23
2018-03-23T08:31:47.281Z,11.47
2018-03-23T08:34:15.613Z,12.43
2018-03-23T08:36:43.181Z,11.60
2018-03-23T08:39:11.614Z,10.27
2018-03-23T08:41:39.215Z,11.83
2018-03-23T08:44:06.875Z,11.53
2018-03-23T08:46:34.388Z,12.23
2018-03-23T08:49:02.691Z,10.83
2018-03-23T08:51:30.939Z,9.70
2018-03-23T08:53:59.235Z,10.00
2018-03-23T08:56:26.810Z,9.60
2018-03-23T08:58:55.280Z,9.70
2018-03-23T09:01:22.832Z,10.47
2018-03-23T09:03:50.520Z,10.67
2018-03-23T09:06:18.553Z,13.23
2018-03-23T09:08:50.694Z,9.23
2018-03-23T09:11:18.234Z,9.37
2018-03-23T09:13:45.782Z,7.43
2018-03-23T09:16:15.783Z,10.57
2018-03-23T09:18:43.293Z,12.27
2018-03-23T09:21:10.835Z,10.30
2018-03-23T09:23:42.107Z,8.90
2018-03-23T09:26:09.778Z,9.17
2018-03-23T09:28:39.391Z,8.30
2018-03-23T09:31:06.927Z,7.73
2018-03-23T09:33:34.521Z,9.73
2018-03-23T09:36:02.002Z,9.53
2018-03-23T09:38:29.575Z,10.83
2018-03-23T09:40:57.116Z,11.67
2018-03-23T09:43:24.648Z,11.67
2018-03-23T09:45:52.940Z,12.03
2018-03-23T09:48:20.477Z,12.13
2018-03-23T09:50:48.772Z,10.93
2018-03-23T09:53:17.058Z,10.10
2018-03-23T09:58:01.109Z,11.77
2018-03-23T10:00:30.128Z,10.63
2018-03-23T10:12:43.376Z,8.73
2018-03-23T10:15:11.661Z,8.37
2018-03-23T10:17:39.941Z,8.03
2018-03-23T10:20:08.217Z,6.87
2018-03-23T10:22:36.519Z,7.80
2018-03-23T10:25:04.654Z,8.70
2018-03-23T10:27:32.151Z,7.27
2018-03-23T10:29:59.711Z,6.63
2018-03-23T10:32:27.899Z,6.67
2018-03-23T10:34:55.406Z,6.63
2018-03-23T10:37:23.001Z,6.03
2018-03-23T10:39:50.576Z,5.60
2018-03-23T10:42:19.319Z,6.17
2018-03-23T10:44:47.639Z,5.87
2018-03-23T10:47:15.207Z,5.90
2018-03-23T10:49:42.849Z,7.17
2018-03-23T10:52:14.721Z,6.00
2018-03-23T10:54:43.043Z,6.30
2018-03-23T10:57:10.562Z,5.00
2018-03-23T10:59:38.084Z,5.73
2018-03-23T11:02:06.915Z,4.60
2018-03-23T11:04:34.432Z,5.17
2018-03-23T11:07:02.721Z,5.23
2018-03-23T11:09:30.996Z,6.03
2018-03-23T11:12:03.253Z,5.93
2018-03-23T11:14:31.563Z,5.10
2018-03-23T11:16:59.086Z,6.40
2018-03-23T11:19:27.358Z,4.83
2018-03-23T11:21:56.229Z,4.03
2018-03-23T11:24:23.779Z,4.90
2018-03-23T11:26:51.396Z,4.63
2018-03-23T11:29:19.679Z,6.13
2018-03-23T11:31:47.220Z,4.60
2018-03-23T11:34:15.497Z,4.23
2018-03-23T11:36:47.781Z,3.97
2018-03-23T11:39:15.363Z,4.07
2018-03-23T11:41:43.126Z,3.47
2018-03-23T11:44:11.366Z,4.50
2018-03-23T11:46:40.069Z,4.70
2018-03-23T11:49:07.592Z,4.27
2018-03-23T11:51:36.595Z,4.53
2018-03-23T11:54:04.208Z,4.27
2018-03-23T11:56:31.716Z,4.10
2018-03-23T11:58:59.985Z,4.83
2018-03-23T12:01:28.221Z,5.57
2018-03-23T12:03:56.087Z,4.13
2018-03-23T12:06:28.277Z,4.83
2018-03-23T12:08:55.786Z,5.33
2018-03-23T12:11:24.074Z,5.23
2018-03-23T12:13:51.584Z,4.93
2018-03-23T12:16:19.098Z,4.83
2018-03-23T12:18:46.647Z,6.73
2018-03-23T12:21:14.151Z,7.47
2018-03-23T12:23:41.669Z,6.03
2018-03-23T12:26:09.187Z,4.73
2018-03-23T12:28:37.110Z,6.77
2018-03-23T12:31:04.631Z,7.83
2018-03-23T12:33:32.941Z,6.23
2018-03-23T12:36:00.465Z,7.30
2018-03-23T12:38:28.749Z,12.10
2018-03-23T12:40:57.040Z,8.93
2018-03-23T12:43:25.922Z,8.67
2018-03-23T12:45:54.247Z,8.07
2018-03-23T12:48:22.556Z,7.37
2018-03-23T12:50:50.184Z,7.77
2018-03-23T12:53:17.710Z,7.87
2018-03-23T12:55:45.223Z,8.00
2018-03-23T12:58:12.772Z,7.93
2018-03-23T13:00:40.272Z,8.23
2018-03-23T13:03:08.574Z,8.20
2018-03-23T13:05:36.113Z,10.67
2018-03-23T13:08:04.385Z,10.70
2018-03-23T13:10:32.692Z,9.60
2018-03-23T13:13:00.240Z,9.30
2018-03-23T13:15:27.882Z,10.33
2018-03-23T13:17:56.155Z,11.93
2018-03-23T13:20:24.453Z,10.03
2018-03-23T13:22:51.969Z,11.50
2018-03-23T13:25:19.503Z,11.00
2018-03-23T13:27:47.043Z,10.50
2018-03-23T13:30:14.579Z,10.10
2018-03-23T13:32:42.861Z,9.33
2018-03-23T13:35:11.135Z,9.23
2018-03-23T13:37:39.521Z,10.00
2018-03-23T13:40:07.829Z,9.50
2018-03-23T13:42:35.363Z,10.33
2018-03-23T13:45:03.046Z,9.70
2018-03-23T13:47:30.568Z,10.07
2018-03-23T13:49:58.876Z,9.67
2018-03-23T13:52:26.381Z,10.50
2018-03-23T13:54:53.946Z,10.70
2018-03-23T13:57:21.464Z,10.30
2018-03-23T13:59:54.967Z,9.70
2018-03-23T14:02:22.525Z,11.57
2018-03-23T14:04:50.863Z,9.90
2018-03-23T14:07:19.759Z,10.53
2018-03-23T14:09:48.036Z,10.50
2018-03-23T14:12:15.627Z,10.90
2018-03-23T14:14:43.133Z,11.60
2018-03-23T14:17:10.817Z,11.77
2018-03-23T14:19:39.102Z,10.63
2018-03-23T14:22:06.621Z,12.47
2018-03-23T14:24:34.160Z,12.67
2018-03-23T14:27:01.677Z,12.33
2018-03-23T14:29:29.977Z,13.83
2018-03-23T14:31:57.625Z,12.63
2018-03-23T14:34:25.147Z,13.60
2018-03-23T14:36:52.661Z,11.67
2018-03-23T14:39:20.992Z,10.73
2018-03-23T14:41:49.281Z,11.60
2018-03-23T14:44:17.726Z,12.30
2018-03-23T14:46:45.233Z,11.93
2018-03-23T14:49:12.772Z,14.70
2018-03-23T14:51:41.092Z,13.07
2018-03-23T14:54:08.609Z,12.90
2018-03-23T14:56:36.895Z,11.67
2018-03-23T14:59:10.885Z,12.30
2018-03-23T15:01:38.464Z,12.10
2018-03-23T15:04:06.875Z,13.17
2018-03-23T15:06:34.443Z,12.63
2018-03-23T15:09:01.979Z,13.90
2018-03-23T15:11:30.320Z,13.27
2018-03-23T15:14:10.532Z,14.13
2018-03-23T15:16:38.059Z,14.70
2018-03-23T15:28:51.403Z,16.30
2018-03-23T15:31:26.881Z,17.83
2018-03-23T15:33:55.725Z,20.10
2018-03-23T15:36:23.273Z,17.27
2018-03-23T15:38:54.968Z,17.03
2018-03-23T15:41:22.499Z,17.00
2018-03-23T15:43:50.180Z,16.03
2018-03-23T15:46:21.629Z,18.37
2018-03-23T15:48:49.157Z,18.07
2018-03-23T15:51:16.675Z,17.20
2018-03-23T15:53:44.238Z,19.03
2018-03-23T15:56:11.796Z,18.03
2018-03-23T15:58:43.405Z,18.73
2018-03-23T16:01:11.353Z,17.80
2018-03-23T16:03:39.732Z,18.33
2018-03-23T16:06:08.033Z,17.77
2018-03-23T16:08:35.581Z,17.73
2018-03-23T16:11:03.840Z,16.40
2018-03-23T16:13:32.132Z,17.27
2018-03-23T16:15:59.712Z,18.50
2018-03-23T16:18:27.285Z,15.73
2018-03-23T16:20:54.771Z,17.40
2018-03-23T16:23:22.313Z,16.53
2018-03-23T16:25:49.821Z,16.97
2018-03-23T16:28:18.125Z,15.53
2018-03-23T16:30:45.675Z,16.67
2018-03-23T16:33:13.227Z,17.27
2018-03-23T16:35:40.765Z,16.37
2018-03-23T16:38:09.054Z,15.77
2018-03-23T16:40:42.053Z,16.23
2018-03-23T16:43:09.572Z,15.87
2018-03-23T16:45:37.114Z,15.40
2018-03-23T16:48:04.641Z,16.27
2018-03-23T16:52:40.002Z,15.37
2018-03-23T16:55:07.532Z,15.43
2018-03-23T16:57:35.803Z,14.77
2018-03-23T17:00:04.819Z,15.47
2018-03-23T17:02:33.311Z,15.50
2018-03-23T17:05:00.822Z,16.80
2018-03-23T17:07:28.359Z,12.67
2018-03-23T17:09:55.893Z,13.30
2018-03-23T17:12:23.759Z,14.30
2018-03-23T17:14:51.420Z,14.63
2018-03-23T17:17:19.049Z,14.73
2018-03-23T17:19:47.339Z,14.23
2018-03-23T17:22:19.015Z,13.30
2018-03-23T17:24:46.527Z,15.57
2018-03-23T17:27:17.914Z,14.20
2018-03-23T17:29:45.450Z,16.73
2018-03-23T17:32:17.925Z,15.20
2018-03-23T17:34:46.230Z,18.13
2018-03-23T17:37:14.714Z,16.37
2018-03-23T17:39:42.276Z,18.97
2018-03-23T17:42:09.796Z,15.47
2018-03-23T17:44:38.086Z,17.07
2018-03-23T17:47:10.446Z,17.03
2018-03-23T17:49:38.870Z,16.70
2018-03-23T17:52:07.081Z,16.03
2018-03-23T17:54:35.214Z,14.93
2018-03-23T17:57:02.740Z,16.00
2018-03-23T17:59:31.051Z,17.03
2018-03-23T18:01:58.585Z,16.27
2018-03-23T18:04:27.123Z,17.50
2018-03-23T18:06:54.669Z,17.17
2018-03-23T18:09:22.210Z,19.07
2018-03-23T18:11:53.898Z,15.07
2018-03-23T18:14:21.435Z,16.50
2018-03-23T18:16:49.767Z,17.47
2018-03-23T18:19:17.326Z,17.47
2018-03-23T18:21:46.312Z,20.87
2018-03-23T18:24:13.873Z,18.07
2018-03-23T18:26:41.468Z,19.83
2018-03-23T18:29:08.988Z,20.73
2018-03-23T18:31:37.374Z,18.40
2018-03-23T18:34:05.574Z,20.53
2018-03-23T18:36:33.876Z,17.83
2018-03-23T18:39:01.467Z,20.30
2018-03-23T18:41:29.086Z,19.80
2018-03-23T18:43:56.662Z,22.97
2018-03-23T18:46:28.208Z,21.20
2018-03-23T18:48:55.744Z,21.17
2018-03-23T18:51:24.064Z,18.60
2018-03-23T18:53:52.282Z,22.90
2018-03-23T18:56:24.444Z,21.33
2018-03-23T18:58:51.986Z,21.37
2018-03-23T19:01:27.544Z,18.83
2018-03-23T19:03:55.411Z,19.97
2018-03-23T19:06:22.918Z,19.67
2018-03-23T19:08:50.442Z,18.80
2018-03-23T19:11:18.744Z,22.33
2018-03-23T19:13:46.326Z,24.70
2018-03-23T19:16:13.917Z,20.23
2018-03-23T19:18:41.532Z,22.97
2018-03-23T19:21:09.210Z,20.73
2018-03-23T19:23:37.625Z,22.77
2018-03-23T19:26:05.260Z,23.27
2018-03-23T19:28:32.807Z,24.50
2018-03-23T19:31:00.450Z,24.10
2018-03-23T19:33:28.384Z,26.13
2018-03-23T19:35:59.820Z,23.13
2018-03-23T19:38:28.194Z,26.63
2018-03-23T19:40:56.345Z,24.80
2018-03-23T19:43:24.356Z,26.53
2018-03-23T19:45:51.875Z,28.60
2018-03-23T19:48:19.408Z,23.87
2018-03-23T19:50:53.150Z,22.37
2018-03-23T19:53:20.677Z,28.00
2018-03-23T19:55:49.054Z,24.90
2018-03-23T19:58:21.859Z,26.13
2018-03-23T20:00:49.382Z,32.20
2018-03-23T20:03:17.837Z,31.53
2018-03-23T20:05:45.372Z,30.43
2018-03-23T20:08:12.952Z,27.80
2018-03-23T20:10:40.539Z,28.07
2018-03-23T20:13:08.834Z,27.40
2018-03-23T20:15:37.152Z,29.57
2018-03-23T20:18:14.462Z,30.47
2018-03-23T20:20:47.766Z,28.37
2018-03-23T20:23:18.871Z,40.93
2018-03-23T20:25:46.395Z,25.93
2018-03-23T20:28:21.170Z,26.23
2018-03-23T20:30:48.691Z,29.70
2018-03-23T20:33:20.561Z,26.73
2018-03-23T20:35:48.654Z,24.97
2018-03-23T20:38:16.257Z,28.73
2018-03-23T20:40:43.834Z,25.40
2018-03-23T20:43:12.129Z,25.03
2018-03-23T20:45:39.675Z,25.00
2018-03-23T20:48:09.059Z,30.33
2018-03-23T20:50:36.586Z,28.03
2018-03-23T20:53:04.117Z,30.23
2018-03-23T20:55:31.651Z,27.07
2018-03-23T20:57:59.522Z,26.77
2018-03-23T21:00:27.808Z,24.77
2018-03-23T21:02:56.087Z,23.73
2018-03-23T21:05:24.624Z,25.17
2018-03-23T21:07:52.360Z,27.50
2018-03-23T21:10:19.893Z,25.40
2018-03-23T21:12:47.488Z,26.13
2018-03-23T21:15:15.055Z,29.10
2018-03-23T21:17:42.694Z,25.87
2018-03-23T21:20:10.236Z,27.13
2018-03-23T21:22:37.820Z,25.10
2018-03-23T21:25:05.375Z,25.90
2018-03-23T21:27:33.021Z,25.77
2018-03-23T21:30:00.564Z,23.23
2018-03-23T21:32:28.834Z,26.17
2018-03-23T21:34:57.132Z,25.30
2018-03-23T21:37:24.652Z,23.70
2018-03-23T21:39:52.196Z,28.10
2018-03-23T21:42:19.713Z,26.47
2018-03-23T21:44:48.053Z,25.20
2018-03-23T21:47:15.592Z,25.07
2018-03-23T21:49:43.218Z,24.43
2018-03-23T21:52:10.798Z,23.80
2018-03-23T21:54:38.428Z,25.70
2018-03-23T21:57:06.734Z,24.93
2018-03-23T21:59:34.246Z,25.27
2018-03-23T22:02:02.538Z,22.83
2018-03-23T22:04:30.813Z,25.30
2018-03-23T22:06:59.321Z,25.43
2018-03-23T22:09:27.373Z,23.27
2018-03-23T22:11:54.967Z,23.70
2018-03-23T22:14:22.482Z,24.27
2018-03-23T22:16:51.622Z,24.27
2018-03-23T22:19:19.204Z,25.87
2018-03-23T22:21:46.717Z,25.33
2018-03-23T22:24:14.256Z,25.23
2018-03-23T22:26:42.564Z,24.03
2018-03-23T22:29:10.574Z,23.53
2018-03-23T22:31:38.108Z,25.93
2018-03-23T22:34:05.734Z,26.37
2018-03-23T22:36:34.791Z,25.13
2018-03-23T22:39:02.291Z,26.80
2018-03-23T22:41:30.591Z,25.83
2018-03-23T22:43:58.108Z,26.43
2018-03-23T22:46:26.532Z,25.57
2018-03-23T22:48:54.089Z,26.07
2018-03-23T22:51:21.712Z,25.70
2018-03-23T22:53:50.001Z,27.57
2018-03-23T22:56:22.618Z,27.80
2018-03-23T22:58:50.119Z,30.70
2018-03-23T23:01:17.645Z,29.30
2018-03-23T23:03:45.173Z,28.80
2018-03-23T23:06:12.685Z,31.10
2018-03-23T23:08:40.257Z,28.73
2018-03-23T23:11:08.538Z,30.53
2018-03-23T23:13:36.076Z,29.90
2018-03-23T23:16:03.589Z,26.60
2018-03-23T23:18:31.111Z,31.03
2018-03-23T23:20:58.663Z,34.73
2018-03-23T23:23:26.268Z,30.33
2018-03-23T23:25:53.910Z,29.43
2018-03-23T23:28:22.202Z,31.83
2018-03-23T23:30:49.758Z,30.37
2018-03-23T23:33:17.267Z,29.17
2018-03-23T23:35:44.787Z,32.83
2018-03-23T23:38:12.319Z,33.23
2018-03-23T23:40:40.602Z,28.17
2018-03-23T23:43:08.909Z,31.33
2018-03-23T23:45:36.433Z,30.67
2018-03-23T23:48:04.740Z,31.67
2018-03-23T23:50:32.248Z,32.10
2018-03-23T23:52:59.752Z,29.33
2018-03-23T23:55:27.283Z,33.93
2018-03-23T23:57:55.597Z,32.00
